createdAt,value
2023-01-13T00:01:27.998Z,99651.00
2023-01-13T00:03:56.559Z,99657.19
2023-01-13T00:06:29.388Z,99667.75
2023-01-13T00:08:57.927Z,99666.00
2023-01-13T00:11:26.377Z,99672.16
2023-01-13T00:13:53.919Z,99659.84
2023-01-13T00:16:21.978Z,99662.47
2023-01-13T00:18:51.281Z,99668.63
2023-01-13T00:21:21.373Z,99651.91
2023-01-13T00:23:49.074Z,99656.31
2023-01-13T00:26:20.170Z,99658.06
2023-01-13T00:28:47.418Z,99643.97
2023-01-13T00:31:21.394Z,99643.06
2023-01-13T00:33:49.288Z,99634.25
2023-01-13T00:36:18.922Z,99623.72
2023-01-13T00:38:46.302Z,99617.53
2023-01-13T00:41:17.434Z,99614.00
2023-01-13T00:43:44.961Z,99611.38
2023-01-13T00:46:16.150Z,99607.88
2023-01-13T00:48:43.776Z,99621.97
2023-01-13T00:51:17.773Z,99624.63
2023-01-13T00:53:48.533Z,99628.16
2023-01-13T00:56:34.172Z,99629.91
2023-01-13T00:59:06.013Z,99622.00
2023-01-13T01:01:33.555Z,99627.28
2023-01-13T01:04:00.585Z,99632.53
2023-01-13T01:06:28.592Z,99629.91
2023-01-13T01:08:56.941Z,99630.78
2023-01-13T01:11:30.538Z,99631.66
2023-01-13T01:14:00.618Z,99629.03
2023-01-13T01:16:31.410Z,99629.91
2023-01-13T01:18:59.573Z,99630.78
2023-01-13T01:21:28.683Z,99630.78
2023-01-13T01:23:56.333Z,99641.34
2023-01-13T01:26:25.947Z,99638.69
2023-01-13T01:28:54.335Z,99637.81
2023-01-13T01:31:28.863Z,99643.97
2023-01-13T01:33:56.318Z,99648.38
2023-01-13T01:36:30.180Z,99643.97
2023-01-13T01:38:58.694Z,99640.47
2023-01-13T01:41:29.981Z,99636.94
2023-01-13T01:44:02.643Z,99636.94
2023-01-13T01:46:44.660Z,99631.66
2023-01-13T01:49:33.145Z,99617.59
2023-01-13T01:52:14.994Z,99620.22
2023-01-13T01:55:15.333Z,99618.47
2023-01-13T01:58:03.914Z,99607.91
2023-01-13T02:00:31.215Z,99600.00
2023-01-13T02:03:00.160Z,99601.75
2023-01-13T02:05:27.445Z,99600.88
2023-01-13T02:07:57.493Z,99596.47
2023-01-13T02:10:28.344Z,99587.66
2023-01-13T02:13:10.234Z,99597.34
2023-01-13T02:16:08.992Z,99582.38
2023-01-13T02:19:24.591Z,99576.22
2023-01-13T02:22:29.383Z,99562.13
2023-01-13T02:25:33.698Z,99570.03
2023-01-13T02:29:17.110Z,99560.34
2023-01-13T02:31:48.686Z,99560.34
2023-01-13T02:34:49.994Z,99551.56
2023-01-13T02:37:32.257Z,99555.09
2023-01-13T02:40:24.569Z,99544.53
2023-01-13T02:43:39.405Z,99543.59
2023-01-13T02:46:18.525Z,99528.59
2023-01-13T02:48:46.752Z,99519.78
2023-01-13T02:51:22.469Z,99519.81
2023-01-13T02:54:09.753Z,99518.91
2023-01-13T02:56:43.374Z,99512.75
2023-01-13T02:59:12.659Z,99518.03
2023-01-13T03:01:40.893Z,99506.59
2023-01-13T03:04:43.814Z,99513.66
2023-01-13T03:07:23.992Z,99520.69
2023-01-13T03:10:11.192Z,99520.69
2023-01-13T03:12:59.289Z,99525.97
2023-01-13T03:16:15.994Z,99519.78
2023-01-13T03:19:13.643Z,99515.38
2023-01-13T03:22:11.646Z,99496.00
2023-01-13T03:24:53.247Z,99497.75
2023-01-13T03:27:34.365Z,99500.41
2023-01-13T03:30:19.480Z,99493.34
2023-01-13T03:32:55.721Z,99482.81
2023-01-13T03:35:29.425Z,99489.84
2023-01-13T03:38:24.575Z,99480.13
2023-01-13T03:41:05.791Z,99492.47
2023-01-13T03:44:01.351Z,99484.56
2023-01-13T03:47:12.656Z,99475.75
2023-01-13T03:50:01.093Z,99472.22
2023-01-13T03:52:51.279Z,99469.59
2023-01-13T03:58:17.875Z,99470.47
2023-01-13T04:00:58.886Z,99475.72
2023-01-13T04:03:47.191Z,99465.19
2023-01-13T04:06:36.046Z,99459.91
2023-01-13T04:09:34.207Z,99457.19
2023-01-13T04:12:18.180Z,99452.81
2023-01-13T04:14:46.471Z,99457.19
2023-01-13T04:17:13.784Z,99455.47
2023-01-13T04:19:40.766Z,99446.59
2023-01-13T04:22:07.769Z,99444.88
2023-01-13T04:24:34.747Z,99443.06
2023-01-13T04:27:01.816Z,99443.94
2023-01-13T04:29:29.043Z,99448.34
2023-01-13T04:31:56.065Z,99443.06
2023-01-13T04:34:23.085Z,99443.06
2023-01-13T04:36:50.427Z,99444.84
2023-01-13T04:39:18.265Z,99435.16
2023-01-13T04:42:01.405Z,99428.09
2023-01-13T04:44:30.607Z,99428.06
2023-01-13T04:46:58.947Z,99431.63
2023-01-13T04:49:26.282Z,99434.25
2023-01-13T04:51:54.252Z,99427.22
2023-01-13T04:54:21.331Z,99420.13
2023-01-13T04:56:48.548Z,99413.06
2023-01-13T04:59:15.947Z,99415.75
2023-01-13T05:01:43.007Z,99408.69
2023-01-13T05:04:10.463Z,99406.94
2023-01-13T05:06:37.486Z,99410.41
2023-01-13T05:09:04.460Z,99403.34
2023-01-13T05:11:49.958Z,99402.50
2023-01-13T05:14:38.031Z,99398.97
2023-01-13T05:17:05.090Z,99392.78
2023-01-13T05:19:36.334Z,99396.31
2023-01-13T05:22:23.347Z,99389.19
2023-01-13T05:25:11.776Z,99382.22
2023-01-13T05:27:42.414Z,99388.34
2023-01-13T05:30:12.907Z,99373.34
2023-01-13T05:32:43.139Z,99394.44
2023-01-13T05:35:10.273Z,99374.13
2023-01-13T05:37:37.852Z,99367.13
2023-01-13T05:40:24.208Z,99369.78
2023-01-13T05:43:20.661Z,99361.84
2023-01-13T05:45:53.165Z,99371.47
2023-01-13T05:48:23.723Z,99363.63
2023-01-13T05:50:54.769Z,99371.56
2023-01-13T05:53:23.008Z,99390.03
2023-01-13T05:55:50.615Z,99383.88
2023-01-13T05:58:19.999Z,99382.19
2023-01-13T06:00:47.270Z,99381.34
2023-01-13T06:03:16.321Z,99398.97
2023-01-13T06:05:43.895Z,99406.03
2023-01-13T06:08:11.047Z,99410.44
2023-01-13T06:10:38.040Z,99416.63
2023-01-13T06:13:05.903Z,99423.69
2023-01-13T06:15:33.270Z,99439.59
2023-01-13T06:18:03.702Z,99442.31
2023-01-13T06:20:30.710Z,99447.63
2023-01-13T06:22:59.057Z,99474.03
2023-01-13T06:25:31.795Z,99479.38
2023-01-13T06:28:00.665Z,99504.91
2023-01-13T06:30:35.872Z,99539.22
2023-01-13T06:33:07.180Z,99539.22
2023-01-13T06:35:36.800Z,99550.69
2023-01-13T06:38:07.397Z,99549.81
2023-01-13T06:40:35.499Z,99562.16
2023-01-13T06:43:16.631Z,99574.47
2023-01-13T06:45:56.412Z,99579.75
2023-01-13T06:48:33.000Z,99574.47
2023-01-13T06:51:00.225Z,99556.88
2023-01-13T06:53:27.237Z,99539.31
2023-01-13T06:55:54.221Z,99551.63
2023-01-13T06:58:21.270Z,99519.97
2023-01-13T07:00:51.653Z,99505.03
2023-01-13T07:03:19.908Z,99491.84
2023-01-13T07:05:56.545Z,99490.06
2023-01-13T07:08:24.983Z,99489.16
2023-01-13T07:10:53.031Z,99488.28
2023-01-13T07:13:39.244Z,99484.78
2023-01-13T07:16:08.800Z,99483.91
2023-01-13T07:18:36.580Z,99473.34
2023-01-13T07:21:10.163Z,99468.94
2023-01-13T07:23:40.632Z,99489.16
2023-01-13T07:26:10.400Z,99494.44
2023-01-13T07:28:38.974Z,99479.47
2023-01-13T07:31:12.993Z,99470.69
2023-01-13T07:33:40.149Z,99472.47
2023-01-13T07:36:07.856Z,99436.44
2023-01-13T07:38:35.293Z,99388.09
2023-01-13T07:41:20.932Z,99379.31
2023-01-13T07:43:48.781Z,99364.41
2023-01-13T07:46:16.524Z,99359.13
2023-01-13T07:48:43.625Z,99350.34
2023-01-13T07:51:12.480Z,99356.47
2023-01-13T07:53:39.623Z,99347.72
2023-01-13T07:56:08.233Z,99344.16
2023-01-13T07:58:37.136Z,99370.47
2023-01-13T08:01:12.487Z,99380.13
2023-01-13T08:03:40.747Z,99402.97
2023-01-13T08:06:08.590Z,99418.78
2023-01-13T08:08:36.160Z,99438.94
2023-01-13T08:11:07.358Z,99454.75
2023-01-13T08:13:34.322Z,99453.88
2023-01-13T08:16:12.385Z,99461.84
2023-01-13T08:18:39.904Z,99453.91
2023-01-13T08:21:15.276Z,99465.28
2023-01-13T08:23:44.246Z,99477.56
2023-01-13T08:26:15.271Z,99499.50
2023-01-13T08:28:42.562Z,99523.22
2023-01-13T08:31:16.550Z,99519.81
2023-01-13T08:33:44.795Z,99534.75
2023-01-13T08:36:13.984Z,99528.59
2023-01-13T08:38:46.469Z,99546.19
2023-01-13T08:41:37.719Z,99540.91
2023-01-13T08:44:06.714Z,99547.94
2023-01-13T08:46:33.801Z,99536.56
2023-01-13T08:49:01.831Z,99526.03
2023-01-13T08:51:28.848Z,99511.03
2023-01-13T08:53:55.930Z,99530.38
2023-01-13T08:56:22.991Z,99536.53
2023-01-13T08:58:51.230Z,99531.25
2023-01-13T09:01:22.875Z,99528.66
2023-01-13T09:03:50.524Z,99536.56
2023-01-13T09:06:18.132Z,99545.38
2023-01-13T09:08:45.266Z,99548.91
2023-01-13T09:11:51.140Z,99548.00
2023-01-13T09:14:21.211Z,99551.53
2023-01-13T09:16:48.392Z,99562.94
2023-01-13T09:19:15.861Z,99567.34
2023-01-13T09:21:43.035Z,99569.94
2023-01-13T09:24:10.093Z,99593.69
2023-01-13T09:26:38.284Z,99597.25
2023-01-13T09:29:05.727Z,99608.69
2023-01-13T09:31:35.608Z,99607.84
2023-01-13T09:34:22.992Z,99594.66
2023-01-13T09:36:50.119Z,99612.25
2023-01-13T09:39:17.318Z,99623.72
2023-01-13T09:42:12.176Z,99603.50
2023-01-13T09:44:55.705Z,99566.56
2023-01-13T09:47:45.655Z,99562.19
2023-01-13T09:50:15.740Z,99559.53
2023-01-13T09:52:43.641Z,99553.38
2023-01-13T09:55:27.487Z,99525.25
2023-01-13T09:57:54.925Z,99518.19
2023-01-13T10:00:25.577Z,99518.19
2023-01-13T10:03:13.631Z,99514.69
2023-01-13T10:05:58.284Z,99501.50
2023-01-13T10:08:33.017Z,99501.50
2023-01-13T10:11:22.346Z,99500.63
2023-01-13T10:13:59.685Z,99468.06
2023-01-13T10:16:42.188Z,99456.66
2023-01-13T10:19:38.639Z,99460.16
2023-01-13T10:22:28.622Z,99454.00
2023-01-13T10:25:12.166Z,99465.41
2023-01-13T10:27:40.027Z,99454.84
2023-01-13T10:30:33.930Z,99456.59
2023-01-13T10:33:09.932Z,99473.31
2023-01-13T10:36:03.530Z,99442.53
2023-01-13T10:38:38.029Z,99402.94
2023-01-13T10:41:27.595Z,99387.13
2023-01-13T10:44:04.681Z,99364.22
2023-01-13T10:46:52.256Z,99367.75
2023-01-13T10:49:36.584Z,99336.06
2023-01-13T10:52:25.569Z,99332.53
2023-01-13T10:54:54.841Z,99315.75
2023-01-13T10:57:25.195Z,99270.00
2023-01-13T10:59:53.261Z,99241.88
2023-01-13T11:02:29.764Z,99230.47
2023-01-13T11:05:03.227Z,99212.00
2023-01-13T11:07:35.584Z,99140.69
2023-01-13T11:10:17.264Z,99120.38
2023-01-13T11:13:16.261Z,99115.75
2023-01-13T11:15:47.542Z,99127.28
2023-01-13T11:18:24.303Z,99154.53
2023-01-13T11:20:52.125Z,99120.91
2023-01-13T11:23:37.018Z,99123.63
2023-01-13T11:26:20.804Z,99127.34
2023-01-13T11:28:58.076Z,99137.72
2023-01-13T11:31:33.614Z,99162.22
2023-01-13T11:34:32.498Z,99157.75
2023-01-13T11:37:02.397Z,99201.72
2023-01-13T11:39:53.898Z,99148.16
2023-01-13T11:42:38.427Z,99083.09
2023-01-13T11:45:43.956Z,99074.28
2023-01-13T11:48:18.098Z,99154.13
2023-01-13T11:51:00.989Z,99186.63
2023-01-13T11:53:59.916Z,99165.44
2023-01-13T11:56:57.068Z,99188.28
2023-01-13T11:59:54.313Z,99242.88
2023-01-13T12:02:58.570Z,99240.53
2023-01-13T12:05:48.888Z,99280.34
2023-01-13T12:08:20.881Z,99306.25
2023-01-13T12:11:05.963Z,99294.94
2023-01-13T12:13:42.628Z,99325.72
2023-01-13T12:16:24.001Z,99338.03
2023-01-13T12:19:00.082Z,99343.31
2023-01-13T12:21:58.969Z,99331.00
2023-01-13T12:24:34.334Z,99299.34
2023-01-13T12:27:11.136Z,99294.88
2023-01-13T12:29:39.358Z,99278.06
2023-01-13T12:32:19.302Z,99285.09
2023-01-13T12:38:00.170Z,99278.97
2023-01-13T12:40:55.740Z,99268.53
2023-01-13T12:43:42.990Z,99263.25
2023-01-13T12:46:19.126Z,99200.84
2023-01-13T12:48:46.857Z,99166.47
2023-01-13T12:51:36.706Z,99139.13
2023-01-13T12:54:45.735Z,99134.69
2023-01-13T12:57:32.959Z,99158.34
2023-01-13T13:00:02.469Z,99176.78
2023-01-13T13:02:31.319Z,99173.31
2023-01-13T13:05:22.657Z,99171.56
2023-01-13T13:08:04.992Z,99190.88
2023-01-13T13:10:39.278Z,99212.84
2023-01-13T13:13:40.781Z,99234.84
2023-01-13T13:16:46.452Z,99244.44
2023-01-13T13:19:20.223Z,99232.03
2023-01-13T13:22:13.754Z,99179.09
2023-01-13T13:24:48.511Z,99175.44
2023-01-13T13:27:37.847Z,99183.25
2023-01-13T13:30:23.760Z,99160.28
2023-01-13T13:33:05.685Z,99116.44
2023-01-13T13:35:51.983Z,99059.56
2023-01-13T13:39:07.375Z,99044.81
2023-01-13T13:41:55.335Z,99069.56
2023-01-13T13:44:48.942Z,99079.31
2023-01-13T13:47:16.483Z,99125.16
2023-01-13T13:49:56.865Z,99152.53
2023-01-13T13:52:54.193Z,99208.97
2023-01-13T13:55:33.751Z,99273.91
2023-01-13T13:58:01.763Z,99326.53
2023-01-13T14:00:31.338Z,99351.88
2023-01-13T14:03:19.636Z,99367.69
2023-01-13T14:06:05.017Z,99382.69
2023-01-13T14:08:37.412Z,99401.16
2023-01-13T14:11:33.849Z,99406.47
2023-01-13T14:14:14.473Z,99411.75
2023-01-13T14:16:41.647Z,99419.72
2023-01-13T14:19:30.105Z,99422.34
2023-01-13T14:22:01.248Z,99414.47
2023-01-13T14:24:30.401Z,99404.78
2023-01-13T14:27:16.138Z,99403.03
2023-01-13T14:29:43.625Z,99414.47
2023-01-13T14:32:17.877Z,99405.69
2023-01-13T14:34:45.128Z,99432.03
2023-01-13T14:37:39.779Z,99422.38
2023-01-13T14:40:27.208Z,99417.97
2023-01-13T14:43:08.365Z,99413.59
2023-01-13T14:45:35.338Z,99424.13
2023-01-13T14:48:09.679Z,99393.38
2023-01-13T14:50:37.343Z,99408.31
2023-01-13T14:53:30.997Z,99399.53
2023-01-13T14:56:21.947Z,99391.63
2023-01-13T14:58:50.000Z,99383.72
2023-01-13T15:01:36.345Z,99386.34
2023-01-13T15:04:18.100Z,99399.53
2023-01-13T15:06:51.515Z,99375.81
2023-01-13T15:09:29.923Z,99350.34
2023-01-13T15:11:58.815Z,99341.56
2023-01-13T15:14:31.603Z,99344.19
2023-01-13T15:16:58.616Z,99324.88
2023-01-13T15:19:25.641Z,99336.28
2023-01-13T15:21:52.646Z,99329.25
2023-01-13T15:24:20.594Z,99345.94
2023-01-13T15:26:47.567Z,99352.06
2023-01-13T15:29:15.430Z,99357.31
2023-01-13T15:31:42.489Z,99358.19
2023-01-13T15:34:09.561Z,99363.47
2023-01-13T15:36:37.909Z,99346.81
2023-01-13T15:39:04.983Z,99338.00
2023-01-13T15:41:50.809Z,99324.84
2023-01-13T15:44:37.208Z,99329.19
2023-01-13T15:47:08.223Z,99352.00
2023-01-13T15:49:41.876Z,99348.50
2023-01-13T15:52:25.092Z,99333.59
2023-01-13T15:54:53.596Z,99328.31
2023-01-13T15:57:27.665Z,99312.53
2023-01-13T16:00:12.270Z,99305.53
2023-01-13T16:02:39.383Z,99287.97
2023-01-13T16:05:07.176Z,99274.78
2023-01-13T16:07:36.116Z,99300.25
2023-01-13T16:10:06.295Z,99299.38
2023-01-13T16:12:33.306Z,99304.66
2023-01-13T16:15:00.411Z,99284.44
2023-01-13T16:17:30.037Z,99303.78
2023-01-13T16:19:57.081Z,99328.34
2023-01-13T16:22:24.132Z,99325.72
2023-01-13T16:24:51.318Z,99302.00
2023-01-13T16:27:24.370Z,99328.34
2023-01-13T16:29:53.038Z,99302.03
2023-01-13T16:32:21.076Z,99283.59
2023-01-13T16:34:48.628Z,99270.41
2023-01-13T16:37:25.484Z,99288.84
2023-01-13T16:39:54.457Z,99317.78
2023-01-13T16:42:22.048Z,99328.22
2023-01-13T16:44:50.748Z,99340.56
2023-01-13T16:47:19.048Z,99359.81
2023-01-13T16:49:46.635Z,99374.81
2023-01-13T16:52:13.800Z,99359.81
2023-01-13T16:54:41.084Z,99371.13
2023-01-13T16:57:12.506Z,99402.75
2023-01-13T16:59:39.567Z,99386.13
2023-01-13T17:02:13.757Z,99378.25
2023-01-13T17:04:40.876Z,99361.63
2023-01-13T17:07:10.179Z,99351.91
2023-01-13T17:09:37.227Z,99356.31
2023-01-13T17:12:04.320Z,99351.88
2023-01-13T17:14:31.253Z,99382.63
2023-01-13T17:16:58.222Z,99360.63
2023-01-13T17:19:25.838Z,99393.03
2023-01-13T17:21:52.870Z,99412.44
2023-01-13T17:24:20.565Z,99412.34
2023-01-13T17:26:51.558Z,99423.75
2023-01-13T17:29:22.327Z,99438.59
2023-01-13T17:31:53.411Z,99466.59
2023-01-13T17:34:21.716Z,99484.13
2023-01-13T17:36:49.067Z,99486.69
2023-01-13T17:39:19.368Z,99488.38
2023-01-13T17:41:48.987Z,99508.50
2023-01-13T17:44:18.659Z,99519.06
2023-01-13T17:46:46.203Z,99512.00
2023-01-13T17:49:15.952Z,99521.72
2023-01-13T17:51:42.980Z,99529.66
2023-01-13T17:54:12.423Z,99540.97
2023-01-13T17:56:43.655Z,99535.69
2023-01-13T17:59:17.389Z,99532.16
2023-01-13T18:01:44.991Z,99528.69
2023-01-13T18:04:18.688Z,99529.63
2023-01-13T18:06:46.307Z,99540.31
2023-01-13T18:09:13.662Z,99519.25
2023-01-13T18:11:41.604Z,99519.19
2023-01-13T18:14:10.323Z,99525.22
2023-01-13T18:16:37.785Z,99514.72
2023-01-13T18:19:23.894Z,99551.59
2023-01-13T18:22:12.785Z,99551.59
2023-01-13T18:24:58.527Z,99543.91
2023-01-13T18:27:38.418Z,99493.16
2023-01-13T18:30:06.851Z,99451.03
2023-01-13T18:32:39.869Z,99451.91
2023-01-13T18:35:10.421Z,99452.72
2023-01-13T18:37:41.990Z,99449.19
2023-01-13T18:40:12.092Z,99456.16
2023-01-13T18:42:52.118Z,99469.34
2023-01-13T18:45:29.498Z,99486.03
2023-01-13T18:47:59.565Z,99478.88
2023-01-13T18:50:28.108Z,99514.03
2023-01-13T18:52:55.583Z,99532.47
2023-01-13T18:55:23.422Z,99520.06
2023-01-13T18:57:52.370Z,99546.41
2023-01-13T19:00:21.195Z,99540.25
2023-01-13T19:05:35.451Z,99566.50
2023-01-13T19:08:04.288Z,99567.19
2023-01-13T19:10:32.651Z,99582.97
2023-01-13T19:13:01.715Z,99602.25
2023-01-13T19:15:29.882Z,99606.53
2023-01-13T19:17:57.108Z,99622.16
2023-01-13T19:20:24.222Z,99635.22
2023-01-13T19:22:54.548Z,99657.06
2023-01-13T19:25:21.672Z,99667.56
2023-01-13T19:27:48.614Z,99683.59
2023-01-13T19:30:15.966Z,99673.75
2023-01-13T19:32:43.237Z,99695.66
2023-01-13T19:35:13.024Z,99696.59
2023-01-13T19:37:40.460Z,99712.38
2023-01-13T19:40:14.186Z,99718.50
2023-01-13T19:43:02.276Z,99729.88
2023-01-13T19:45:32.179Z,99741.22
2023-01-13T19:48:05.378Z,99774.78
2023-01-13T19:50:38.536Z,99770.44
2023-01-13T19:53:06.752Z,99790.84
2023-01-13T19:55:33.985Z,99798.00
2023-01-13T19:58:01.021Z,99786.75
2023-01-13T20:00:28.037Z,99777.00
2023-01-13T20:02:56.753Z,99763.66
2023-01-13T20:05:26.009Z,99777.63
2023-01-13T20:07:53.197Z,99788.00
2023-01-13T20:10:22.216Z,99808.31
2023-01-13T20:12:49.286Z,99821.69
2023-01-13T20:15:16.454Z,99816.28
2023-01-13T20:17:44.605Z,99817.84
2023-01-13T20:20:12.132Z,99826.47
2023-01-13T20:22:40.178Z,99844.22
2023-01-13T20:25:08.436Z,99834.06
2023-01-13T20:27:37.245Z,99831.25
2023-01-13T20:30:06.213Z,99821.50
2023-01-13T20:32:36.998Z,99832.66
2023-01-13T20:35:04.364Z,99848.41
2023-01-13T20:37:31.332Z,99862.75
2023-01-13T20:40:01.450Z,99846.19
2023-01-13T20:42:29.277Z,99834.66
2023-01-13T20:45:01.158Z,99831.03
2023-01-13T20:47:29.464Z,99843.31
2023-01-13T20:49:56.609Z,99854.78
2023-01-13T20:52:23.963Z,99854.00
2023-01-13T20:54:51.172Z,99839.72
2023-01-13T20:57:18.543Z,99838.75
2023-01-13T20:59:45.588Z,99837.34
2023-01-13T21:02:15.186Z,99836.66
2023-01-13T21:04:42.169Z,99819.84
2023-01-13T21:07:10.546Z,99822.25
2023-01-13T21:09:37.677Z,99834.53
2023-01-13T21:12:24.092Z,99818.66
2023-01-13T21:15:09.709Z,99830.06
2023-01-13T21:17:56.353Z,99821.19
2023-01-13T21:20:23.553Z,99827.13
2023-01-13T21:22:59.004Z,99851.13
2023-01-13T21:25:26.805Z,99833.63
2023-01-13T21:27:55.860Z,99831.03
2023-01-13T21:30:22.958Z,99826.75
2023-01-13T21:32:49.978Z,99817.03
2023-01-13T21:35:17.090Z,99824.88
2023-01-13T21:37:44.285Z,99824.03
2023-01-13T21:40:13.935Z,99846.00
2023-01-13T21:43:00.080Z,99840.81
2023-01-13T21:45:45.661Z,99836.47
2023-01-13T21:48:12.820Z,99836.25
2023-01-13T21:50:40.447Z,99843.06
2023-01-13T21:53:08.057Z,99840.25
2023-01-13T21:55:36.920Z,99844.56
2023-01-13T21:58:14.161Z,99886.16
2023-01-13T22:00:44.358Z,99876.44
2023-01-13T22:03:14.654Z,99867.06
2023-01-13T22:05:42.056Z,99874.81
2023-01-13T22:08:12.438Z,99880.00
2023-01-13T22:10:57.151Z,99887.88
2023-01-13T22:13:43.091Z,99887.09
2023-01-13T22:16:10.284Z,99888.78
2023-01-13T22:18:37.354Z,99892.38
2023-01-13T22:21:04.742Z,99889.69
2023-01-13T22:23:31.657Z,99888.88
2023-01-13T22:26:06.595Z,99888.19
2023-01-13T22:28:40.179Z,99872.19
2023-01-13T22:31:16.105Z,99873.00
2023-01-13T22:33:46.991Z,99892.50
2023-01-13T22:36:15.665Z,99882.84
2023-01-13T22:38:42.651Z,99871.38
2023-01-13T22:41:10.071Z,99892.34
2023-01-13T22:43:38.350Z,99885.97
2023-01-13T22:46:11.809Z,99897.34
2023-01-13T22:48:40.341Z,99899.41
2023-01-13T22:51:10.678Z,99882.69
2023-01-13T22:53:38.430Z,99900.13
2023-01-13T22:56:06.404Z,99904.47
2023-01-13T22:58:33.490Z,99928.72
2023-01-13T23:01:16.431Z,99944.34
2023-01-13T23:03:47.672Z,99944.25
2023-01-13T23:06:15.734Z,99949.34
2023-01-13T23:08:42.705Z,99965.31
2023-01-13T23:11:13.777Z,99965.06
2023-01-13T23:13:43.173Z,99966.00
2023-01-13T23:16:17.405Z,99971.94
2023-01-13T23:18:48.254Z,99975.63
2023-01-13T23:21:29.435Z,99971.59
2023-01-13T23:23:58.533Z,99956.53
2023-01-13T23:26:27.398Z,99948.56
2023-01-13T23:28:59.736Z,99949.53
2023-01-13T23:31:26.672Z,99956.41
2023-01-13T23:33:53.810Z,99955.47
2023-01-13T23:36:24.672Z,99956.38
2023-01-13T23:38:52.956Z,99955.25
2023-01-13T23:41:23.467Z,99966.59
2023-01-13T23:43:56.937Z,99975.56
2023-01-13T23:46:24.410Z,99969.50
2023-01-13T23:48:52.130Z,99952.72
2023-01-13T23:51:21.385Z,99956.91
2023-01-13T23:53:50.375Z,99961.97
2023-01-13T23:56:23.632Z,99968.22
2023-01-13T23:58:51.756Z,99968.22
